mardi 18 février 2014

ALERTE SPOTTING 18/02/14

320 F-HDMF Air Corsica (cyclistes)
   XK4511/XK4532  08h30/09h25
  XK4533/XK4516  113h55/14h45
 XK4517/XK4514  20h00/21h05

CCX HB-JFY
  dpt 10h00

AT7 F-GRPI
  arv  A58620  13h25

73H CN-RGN RAM (sticker 50th 737)
  AT770/AT771  17h20/18h30

Manque les prévisions/immats UX / BE / AZ / TP / BA / TU / certains AH
*** Heures en Local Time / prévisions soumises
 à modifications de dernières minutes ***

le TAF de la journée



METAR: LFPO 180330Z 00000KT CAVOK 04/02 Q1013 NOSIG=
 
TAF LONG: LFPO 172300Z 1800/1906 15004KT CAVOK TEMPO 1803/1808 4000 BR
PROB30 TEMPO 1803/1808 0600 BCFG BECMG 1815/1817 20008KT BKN020 TEMPO
1817/1820 4000 SHRA BKN020 SCT030TCU TEMPO 1900/1906 4000 BR BKN006=  


 Les logs des jours précédents :
 http://www.airkalo.com/ORLYAVIATION/Logdumois.html